Sulphur Springs, OH (44881)

11:05 PM EDT en Octubre 31, 2014 (GMT -0400)
Brandywine Creek | Change Station
CLOSE
Current Station
Estación meteorológica personal
Location: Bucyrus, OH
Altura: 997 ft
Estaciones meteorológicas cercanas

Alt 997 ft 40.86 °N, 82.96 °W | Updated 12 minutes ago

Muy nublado
Muy nublado
36.5 ° F
Sensación térmica 30 ° F
N
8.9
Viento Variable Viento desde NO

Hoy
Alta -- | Baja -- ° F
--% Posibilidad de precipitaciones
Ayer
Alta -- | Baja -- ° F
Precip. -- pul
8:00 AM 6:28 PM
Cuarto creciente, 61% visible
Presión 29.94 pul
Visibilidad 7.0 Millas
Nubes Muy nublado 600 ft
Nublado 1200 ft
Vientos helados 30 ° F
Punto de rocío 36 ° F
Humedad 96%
Precipitaciones 0.32 pul
Espesor de la nieve No disponible.
UV 0 de una escala de 12
Polen .10 de una escala de 12
Calidad del aire No disponible.
Flu Activity No disponible.
METAR KMFD 010252Z AUTO 33009KT 7SM -RA BKN006 OVC012 04/03 A2992 RMK AO2 SLP139 P0003 60010 T00390033 53012

More Conditions Fewer Conditions

Presión 29.94 pul
Visibilidad 7.0 Millas
Nubes Muy nublado 600 ft
Nublado 1200 ft
Vientos helados 30 ° F
Punto de rocío 36 ° F
Humedad 96%
Precipitaciones 0.32 pul
Espesor de la nieve No disponible.
UV 0 de una escala de 12
Polen .10 de una escala de 12
Calidad del aire No disponible.
Flu Activity No disponible.
METAR KMFD 010252Z AUTO 33009KT 7SM -RA BKN006 OVC012 04/03 A2992 RMK AO2 SLP139 P0003 60010 T00390033 53012

More Conditions Fewer Conditions

10-Day Weather Forecast

Almanac

Astronomía

Oct. 31, 2014 Salida Puesta
Hora real
Crepúsculo civil
Crepúsculo náutico
Crepúsculo astronómico
Luna
Horas de luz
Horas de luz
Tomorrow will be .
, % of the Moon is Illuminated

Extremos de hoy

Máximos del estado Bajos del estado

Community

WunderPhotos

Upload Photos

1,766,829 ¡fotos cargadas!

WunderBlogs® & News

Nearby

Calidad del aire

  Calidad del aire Índice AQ Contaminante
Not available.

Grosos de nieve

Estación Profundido Altura

Actividad de terremotos

Ciudad Distance Mag. Tiempo y dato
Magnitud mínima muestra es 2,5.

Temperaturas de aguas costeras

Lugar Temperatura

Estaciones meteorológicas cercanas